createdAt,value
2023-04-23T00:00:12.990Z,95.40
2023-04-23T00:03:06.401Z,95.50
2023-04-23T00:06:18.037Z,95.67
2023-04-23T00:09:08.956Z,95.52
2023-04-23T00:12:03.176Z,95.21
2023-04-23T00:14:54.597Z,95.57
2023-04-23T00:17:45.047Z,95.80
2023-04-23T00:20:35.903Z,95.32
2023-04-23T00:23:26.591Z,94.68
2023-04-23T00:26:20.064Z,94.34
2023-04-23T00:29:10.787Z,93.76
2023-04-23T00:32:22.823Z,93.65
2023-04-23T00:35:20.873Z,93.42
2023-04-23T00:38:11.499Z,93.66
2023-04-23T00:41:04.936Z,93.83
2023-04-23T00:44:08.979Z,93.98
2023-04-23T00:47:12.392Z,94.27
2023-04-23T00:50:08.925Z,94.09
2023-04-23T00:53:09.077Z,94.03
2023-04-23T00:56:19.700Z,94.21
2023-04-23T00:59:21.241Z,94.26
2023-04-23T01:02:21.764Z,94.08
2023-04-23T01:05:23.326Z,94.20
2023-04-23T01:08:27.611Z,94.48
2023-04-23T01:11:37.369Z,94.85
2023-04-23T01:14:48.420Z,95.32
2023-04-23T01:17:52.259Z,95.06
2023-04-23T01:20:48.266Z,94.81
2023-04-23T01:23:38.581Z,93.45
2023-04-23T01:26:49.069Z,92.84
2023-04-23T01:29:59.744Z,93.05
2023-04-23T01:33:10.685Z,93.57
2023-04-23T01:36:03.954Z,93.12
2023-04-23T01:39:15.890Z,92.81
2023-04-23T01:42:20.868Z,92.80
2023-04-23T01:45:12.669Z,92.68
2023-04-23T01:48:21.965Z,92.17
2023-04-23T01:51:32.552Z,92.02
2023-04-23T01:54:25.679Z,91.62
2023-04-23T01:57:29.392Z,91.43
2023-04-23T02:00:20.833Z,91.14
2023-04-23T02:03:23.890Z,91.12
2023-04-23T02:06:34.777Z,91.20
2023-04-23T02:09:28.272Z,91.29
2023-04-23T02:12:29.671Z,91.71
2023-04-23T02:15:22.587Z,92.04
2023-04-23T02:18:33.136Z,92.09
2023-04-23T02:21:33.389Z,92.22
2023-04-23T02:24:23.600Z,92.26
2023-04-23T02:27:23.972Z,91.97
2023-04-23T02:30:14.882Z,91.59
2023-04-23T02:33:05.407Z,91.78
2023-04-23T02:35:55.718Z,92.23
2023-04-23T02:39:06.520Z,92.87
2023-04-23T02:42:17.280Z,93.38
2023-04-23T02:45:27.697Z,93.60
2023-04-23T02:48:22.483Z,93.41
2023-04-23T02:51:27.531Z,93.78
2023-04-23T02:54:28.882Z,94.13
2023-04-23T02:57:19.412Z,93.92
2023-04-23T03:00:30.294Z,93.28
2023-04-23T03:03:39.923Z,92.72
2023-04-23T03:06:35.892Z,92.44
2023-04-23T03:09:45.637Z,92.44
2023-04-23T03:12:56.564Z,92.51
2023-04-23T03:15:47.046Z,92.40
2023-04-23T03:18:39.730Z,92.15
2023-04-23T03:21:33.266Z,92.06
2023-04-23T03:24:43.985Z,92.37
2023-04-23T03:27:40.315Z,92.61
2023-04-23T03:30:41.741Z,92.57
2023-04-23T03:33:39.873Z,92.40
2023-04-23T03:36:41.040Z,92.05
2023-04-23T03:39:44.670Z,92.00
2023-04-23T03:42:55.246Z,92.33
2023-04-23T03:46:06.751Z,92.84
2023-04-23T03:49:05.077Z,93.18
2023-04-23T03:52:07.424Z,93.21
2023-04-23T03:55:12.354Z,93.33
2023-04-23T03:58:07.148Z,93.55
2023-04-23T04:01:15.570Z,93.54
2023-04-23T04:04:11.276Z,94.00
2023-04-23T04:07:14.746Z,94.12
2023-04-23T04:10:24.247Z,94.50
2023-04-23T04:13:24.625Z,94.17
2023-04-23T04:16:19.685Z,93.76
2023-04-23T04:19:30.272Z,93.42
2023-04-23T04:22:41.192Z,93.53
2023-04-23T04:25:31.713Z,93.38
2023-04-23T04:28:25.369Z,93.23
2023-04-23T04:31:20.634Z,93.17
2023-04-23T04:34:18.238Z,93.05
2023-04-23T04:37:11.724Z,92.90
2023-04-23T04:40:02.764Z,92.85
2023-04-23T04:42:53.204Z,92.95
2023-04-23T04:46:07.514Z,92.79
2023-04-23T04:49:19.817Z,92.85
2023-04-23T04:52:30.698Z,92.89
2023-04-23T04:55:21.092Z,93.04
2023-04-23T04:58:30.268Z,93.02
2023-04-23T05:01:31.289Z,93.19
2023-04-23T05:04:24.881Z,93.34
2023-04-23T05:07:15.404Z,93.60
2023-04-23T05:10:09.079Z,94.13
2023-04-23T05:13:02.012Z,94.41
2023-04-23T05:15:52.537Z,94.50
2023-04-23T05:19:03.058Z,94.57
2023-04-23T05:21:53.428Z,94.82
2023-04-23T05:24:47.099Z,94.47
2023-04-23T05:27:57.929Z,94.32
2023-04-23T05:30:48.607Z,94.55
2023-04-23T05:33:49.291Z,94.38
2023-04-23T05:36:43.366Z,93.80
2023-04-23T05:39:46.901Z,93.64
2023-04-23T05:42:58.585Z,93.63
2023-04-23T05:45:51.633Z,93.62
2023-04-23T05:48:45.190Z,93.31
2023-04-23T05:51:55.673Z,93.28
2023-04-23T05:55:06.883Z,93.30
2023-04-23T05:58:19.325Z,93.44
2023-04-23T06:01:22.985Z,93.48
2023-04-23T06:04:24.559Z,93.53
2023-04-23T06:07:28.687Z,93.45
2023-04-23T06:10:30.197Z,93.46
2023-04-23T06:13:30.983Z,93.42
2023-04-23T06:16:34.356Z,93.55
2023-04-23T06:19:38.353Z,93.53
2023-04-23T06:22:41.510Z,93.79
2023-04-23T06:25:40.987Z,93.60
2023-04-23T06:28:33.674Z,93.71
2023-04-23T06:31:57.529Z,93.60
2023-04-23T06:35:00.034Z,93.63
2023-04-23T06:38:11.987Z,93.36
2023-04-23T06:41:10.088Z,93.73
2023-04-23T06:44:03.572Z,93.68
2023-04-23T06:47:13.842Z,93.36
2023-04-23T06:50:10.678Z,92.62
2023-04-23T06:53:03.490Z,92.21
2023-04-23T06:56:02.856Z,92.30
2023-04-23T06:59:02.393Z,92.05
2023-04-23T07:01:55.965Z,91.51
2023-04-23T07:04:51.300Z,91.23
2023-04-23T07:07:43.562Z,90.84
2023-04-23T07:10:37.340Z,90.10
2023-04-23T07:13:27.983Z,89.60
2023-04-23T07:16:24.112Z,89.64
2023-04-23T07:19:25.512Z,89.07
2023-04-23T07:22:19.153Z,88.67
2023-04-23T07:25:10.058Z,88.39
2023-04-23T07:28:00.750Z,87.96
2023-04-23T07:30:51.040Z,87.88
2023-04-23T07:33:41.521Z,87.99
2023-04-23T07:36:32.291Z,86.32
2023-04-23T07:39:22.987Z,85.26
2023-04-23T07:42:13.271Z,84.40
2023-04-23T07:45:03.658Z,83.45
2023-04-23T07:47:54.000Z,82.67
2023-04-23T07:50:44.751Z,82.27
2023-04-23T07:53:35.133Z,82.24
2023-04-23T07:56:26.285Z,82.81
2023-04-23T07:59:16.650Z,83.23
2023-04-23T08:02:07.021Z,83.43
2023-04-23T08:04:57.500Z,83.72
2023-04-23T08:07:47.851Z,84.21
2023-04-23T08:10:38.186Z,84.25
2023-04-23T08:13:28.374Z,84.27
2023-04-23T08:16:21.785Z,82.45
2023-04-23T08:19:14.647Z,79.16
2023-04-23T08:22:04.981Z,76.18
2023-04-23T08:24:55.268Z,75.32
2023-04-23T08:27:45.448Z,73.51
2023-04-23T08:30:35.768Z,71.74
2023-04-23T08:33:26.197Z,69.31
2023-04-23T08:36:16.561Z,66.61
2023-04-23T08:39:13.941Z,63.65
2023-04-23T08:42:06.873Z,59.92
2023-04-23T08:44:56.951Z,58.26
2023-04-23T08:47:47.105Z,56.08
2023-04-23T08:50:38.496Z,53.62
2023-04-23T08:53:29.305Z,52.03
2023-04-23T08:56:21.170Z,50.39
2023-04-23T08:59:12.186Z,48.76
2023-04-23T09:02:10.465Z,47.26
2023-04-23T09:05:01.271Z,45.88
2023-04-23T09:07:51.459Z,45.11
2023-04-23T09:10:42.311Z,43.94
2023-04-23T09:13:33.198Z,43.26
2023-04-23T09:16:23.492Z,44.08
2023-04-23T09:19:13.956Z,45.07
2023-04-23T09:22:04.195Z,46.14
2023-04-23T09:24:55.568Z,47.38
2023-04-23T09:27:46.490Z,48.13
2023-04-23T09:30:40.175Z,48.72
2023-04-23T09:33:31.175Z,45.03
2023-04-23T09:36:23.989Z,43.77
2023-04-23T09:39:15.012Z,43.43
2023-04-23T09:42:08.652Z,42.32
2023-04-23T09:44:59.837Z,40.94
2023-04-23T09:47:55.387Z,41.75
2023-04-23T09:50:45.978Z,43.60
2023-04-23T09:53:43.509Z,44.35
2023-04-23T09:56:34.117Z,43.57
2023-04-23T09:59:39.530Z,44.83
2023-04-23T10:02:40.224Z,46.69
2023-04-23T10:05:45.282Z,47.90
2023-04-23T10:08:44.474Z,49.13
2023-04-23T10:11:34.989Z,49.47
2023-04-23T10:14:25.624Z,47.44
2023-04-23T10:17:15.853Z,45.21
2023-04-23T10:20:08.506Z,41.84
2023-04-23T10:22:58.914Z,40.07
2023-04-23T10:25:49.201Z,41.13
2023-04-23T10:28:41.070Z,43.11
2023-04-23T10:31:34.025Z,45.28
2023-04-23T10:34:25.021Z,46.49
2023-04-23T10:37:16.501Z,47.54
2023-04-23T10:40:12.705Z,47.99
2023-04-23T10:43:03.227Z,48.40
2023-04-23T10:45:54.038Z,48.99
2023-04-23T10:49:03.799Z,49.18
2023-04-23T10:55:00.237Z,48.82
2023-04-23T10:58:01.737Z,48.78
2023-04-23T11:00:53.805Z,48.23
2023-04-23T11:03:44.993Z,48.83
2023-04-23T11:06:55.230Z,49.15
2023-04-23T11:09:47.631Z,48.82
2023-04-23T11:12:40.091Z,48.24
2023-04-23T11:15:31.735Z,47.59
2023-04-23T11:18:25.685Z,48.12
2023-04-23T11:21:16.089Z,48.22
2023-04-23T11:24:08.318Z,49.25
2023-04-23T11:26:58.860Z,49.96
2023-04-23T11:29:49.435Z,50.94
2023-04-23T11:32:39.863Z,52.07
2023-04-23T11:35:32.524Z,53.36
2023-04-23T11:38:23.024Z,54.53
2023-04-23T11:41:14.032Z,55.62
2023-04-23T11:44:04.992Z,56.28
2023-04-23T11:46:58.407Z,56.68
2023-04-23T11:49:49.895Z,57.11
2023-04-23T11:52:40.008Z,57.34
2023-04-23T11:55:33.569Z,57.38
2023-04-23T11:58:23.884Z,57.48
2023-04-23T12:01:14.132Z,57.48
2023-04-23T12:04:13.566Z,57.45
2023-04-23T12:07:12.785Z,57.64
2023-04-23T12:10:10.973Z,57.75
2023-04-23T12:13:01.219Z,57.60
2023-04-23T12:15:52.451Z,56.92
2023-04-23T12:18:44.518Z,56.53
2023-04-23T12:21:34.827Z,56.43
2023-04-23T12:24:26.305Z,55.83
2023-04-23T12:27:20.398Z,54.86
2023-04-23T12:30:12.060Z,54.19
2023-04-23T12:33:02.649Z,52.58
2023-04-23T12:35:53.405Z,48.05
2023-04-23T12:38:43.772Z,45.23
2023-04-23T12:41:33.875Z,43.13
2023-04-23T12:44:24.030Z,41.69
2023-04-23T12:47:15.906Z,40.72
2023-04-23T12:50:06.885Z,40.22
2023-04-23T12:52:57.005Z,39.77
2023-04-23T12:55:48.538Z,39.47
2023-04-23T12:58:38.789Z,39.05
2023-04-23T13:01:29.219Z,39.15
2023-04-23T13:04:19.481Z,40.56
2023-04-23T13:07:10.329Z,41.37
2023-04-23T13:10:00.662Z,43.07
2023-04-23T13:12:50.750Z,44.85
2023-04-23T13:15:41.224Z,44.92
2023-04-23T13:18:31.599Z,44.21
2023-04-23T13:21:21.899Z,43.54
2023-04-23T13:24:12.098Z,43.18
2023-04-23T13:27:02.924Z,44.92
2023-04-23T13:29:53.161Z,46.02
2023-04-23T13:32:43.355Z,47.11
2023-04-23T13:35:33.490Z,48.34
2023-04-23T13:38:23.787Z,49.84
2023-04-23T13:41:14.264Z,50.67
2023-04-23T13:44:04.855Z,51.29
2023-04-23T13:46:57.298Z,51.65
2023-04-23T13:49:47.502Z,51.50
2023-04-23T13:52:39.445Z,51.25
2023-04-23T13:55:29.952Z,49.71
2023-04-23T13:58:20.337Z,48.33
2023-04-23T14:01:12.039Z,45.82
2023-04-23T14:04:04.233Z,43.41
2023-04-23T14:06:54.601Z,41.78
2023-04-23T14:09:46.661Z,40.32
2023-04-23T14:12:36.813Z,39.48
2023-04-23T14:15:27.076Z,38.27
2023-04-23T14:18:17.372Z,38.02
2023-04-23T14:21:07.808Z,37.47
2023-04-23T14:24:02.446Z,37.85
2023-04-23T14:26:52.908Z,38.31
2023-04-23T14:29:47.441Z,38.92
2023-04-23T14:32:37.696Z,39.97
2023-04-23T14:35:39.561Z,41.04
2023-04-23T14:38:33.190Z,42.17
2023-04-23T14:41:23.657Z,43.02
2023-04-23T14:44:13.975Z,43.13
2023-04-23T14:47:04.110Z,44.51
2023-04-23T14:49:54.321Z,46.89
2023-04-23T14:52:46.750Z,48.75
2023-04-23T14:55:37.158Z,50.25
2023-04-23T14:58:27.301Z,51.45
2023-04-23T15:01:17.661Z,52.74
2023-04-23T15:04:08.172Z,53.84
2023-04-23T15:06:59.560Z,54.87
2023-04-23T15:09:51.932Z,55.84
2023-04-23T15:12:49.681Z,56.58
2023-04-23T15:15:45.412Z,57.83
2023-04-23T15:18:35.840Z,58.78
2023-04-23T15:21:26.463Z,59.14
2023-04-23T15:24:16.799Z,59.27
2023-04-23T15:27:08.457Z,58.99
2023-04-23T15:29:59.149Z,58.61
2023-04-23T15:32:49.388Z,58.49
2023-04-23T15:35:41.402Z,58.24
2023-04-23T15:38:31.552Z,57.60
2023-04-23T15:41:21.833Z,57.21
2023-04-23T15:44:12.831Z,56.65
2023-04-23T15:47:03.545Z,56.34
2023-04-23T15:49:53.682Z,56.16
2023-04-23T15:52:44.235Z,56.42
2023-04-23T15:55:34.732Z,56.47
2023-04-23T15:58:24.915Z,56.25
2023-04-23T16:01:15.091Z,55.72
2023-04-23T16:04:11.213Z,55.27
2023-04-23T16:07:02.004Z,54.84
2023-04-23T16:09:52.293Z,54.87
2023-04-23T16:12:45.689Z,54.76
2023-04-23T16:15:36.078Z,54.67
2023-04-23T16:18:26.308Z,54.92
2023-04-23T16:21:16.601Z,55.03
2023-04-23T16:24:08.049Z,55.36
2023-04-23T16:26:58.231Z,56.07
2023-04-23T16:29:48.494Z,56.52
2023-04-23T16:32:38.673Z,56.92
2023-04-23T16:35:29.074Z,57.37
2023-04-23T16:38:19.208Z,57.93
2023-04-23T16:41:09.437Z,58.32
2023-04-23T16:44:02.460Z,58.60
2023-04-23T16:46:53.785Z,58.89
2023-04-23T16:49:43.950Z,59.10
2023-04-23T16:52:34.293Z,58.93
2023-04-23T16:55:27.814Z,58.53
2023-04-23T16:58:18.953Z,58.55
2023-04-23T17:01:09.804Z,58.58
2023-04-23T17:04:00.262Z,58.86
2023-04-23T17:06:51.007Z,58.89
2023-04-23T17:09:41.225Z,59.12
2023-04-23T17:12:31.557Z,58.73
2023-04-23T17:15:22.908Z,58.32
2023-04-23T17:18:15.938Z,58.16
2023-04-23T17:21:06.650Z,58.49
2023-04-23T17:23:56.902Z,58.41
2023-04-23T17:26:49.278Z,58.55
2023-04-23T17:29:39.464Z,58.43
2023-04-23T17:32:30.175Z,58.48
2023-04-23T17:35:20.641Z,58.55
2023-04-23T17:38:11.248Z,58.42
2023-04-23T17:41:01.493Z,58.68
2023-04-23T17:43:51.660Z,58.78
2023-04-23T17:46:42.110Z,58.53
2023-04-23T17:49:32.265Z,58.30
2023-04-23T17:52:22.451Z,57.70
2023-04-23T17:55:13.089Z,57.47
2023-04-23T17:58:05.803Z,57.26
2023-04-23T18:00:56.394Z,57.52
2023-04-23T18:03:48.223Z,57.49
2023-04-23T18:06:38.513Z,57.70
2023-04-23T18:09:29.310Z,57.89
2023-04-23T18:12:19.574Z,58.18
2023-04-23T18:15:12.559Z,58.79
2023-04-23T18:18:03.706Z,58.88
2023-04-23T18:20:53.936Z,59.32
2023-04-23T18:23:44.186Z,59.57
2023-04-23T18:26:34.419Z,59.91
2023-04-23T18:29:25.493Z,60.11
2023-04-23T18:32:27.472Z,60.46
2023-04-23T18:35:21.937Z,60.93
2023-04-23T18:38:23.514Z,61.34
2023-04-23T18:41:14.111Z,61.68
2023-04-23T18:44:04.336Z,61.82
2023-04-23T18:46:55.252Z,62.10
2023-04-23T18:49:53.841Z,62.44
2023-04-23T18:52:44.237Z,62.63
2023-04-23T18:55:34.487Z,63.02
2023-04-23T18:58:30.160Z,63.15
2023-04-23T19:01:20.985Z,62.91
2023-04-23T19:04:11.341Z,62.99
2023-04-23T19:07:01.571Z,63.16
2023-04-23T19:09:51.923Z,63.45
2023-04-23T19:12:42.008Z,63.70
2023-04-23T19:15:32.534Z,63.82
2023-04-23T19:18:23.158Z,63.84
2023-04-23T19:21:16.729Z,64.07
2023-04-23T19:24:07.394Z,64.53
2023-04-23T19:26:58.127Z,64.68
2023-04-23T19:29:49.392Z,64.79
2023-04-23T19:32:39.875Z,64.93
2023-04-23T19:35:30.357Z,65.41
2023-04-23T19:38:20.718Z,65.83
2023-04-23T19:41:11.404Z,66.29
2023-04-23T19:44:01.865Z,66.80
2023-04-23T19:46:51.965Z,67.40
2023-04-23T19:49:42.608Z,67.83
2023-04-23T19:52:33.048Z,68.31
2023-04-23T19:55:27.233Z,68.76
2023-04-23T19:58:20.801Z,69.01
2023-04-23T20:01:11.375Z,69.35
2023-04-23T20:04:01.933Z,69.76
2023-04-23T20:06:52.176Z,70.16
2023-04-23T20:09:42.921Z,70.44
2023-04-23T20:12:34.121Z,70.69
2023-04-23T20:15:34.613Z,71.03
2023-04-23T20:18:25.731Z,71.35
2023-04-23T20:21:16.197Z,71.48
2023-04-23T20:24:09.019Z,71.73
2023-04-23T20:26:59.284Z,71.99
2023-04-23T20:29:50.385Z,71.94
2023-04-23T20:32:40.541Z,72.10
2023-04-23T20:35:31.712Z,72.31
2023-04-23T20:38:21.865Z,72.44
2023-04-23T20:41:12.230Z,72.43
2023-04-23T20:44:03.417Z,72.41
2023-04-23T20:46:53.864Z,72.45
2023-04-23T20:49:48.043Z,72.50
2023-04-23T20:52:38.721Z,72.68
2023-04-23T20:55:28.990Z,72.92
2023-04-23T20:58:19.243Z,73.09
2023-04-23T21:01:11.492Z,73.15
2023-04-23T21:04:02.519Z,73.29
2023-04-23T21:07:03.091Z,73.17
2023-04-23T21:09:56.089Z,73.11
2023-04-23T21:12:46.848Z,73.10
2023-04-23T21:15:37.590Z,73.00
2023-04-23T21:18:27.978Z,73.11
2023-04-23T21:21:18.950Z,73.02
2023-04-23T21:24:09.236Z,73.01
2023-04-23T21:26:59.606Z,73.13
2023-04-23T21:29:49.891Z,73.20
2023-04-23T21:32:52.166Z,73.33
2023-04-23T21:35:42.512Z,73.57
2023-04-23T21:38:33.673Z,73.71
2023-04-23T21:41:24.613Z,73.58
2023-04-23T21:44:14.946Z,73.46
2023-04-23T21:47:08.337Z,73.34
2023-04-23T21:50:01.624Z,73.49
2023-04-23T21:52:53.456Z,73.52
2023-04-23T21:55:43.744Z,73.75
2023-04-23T21:58:35.306Z,73.92
2023-04-23T22:01:25.840Z,74.20
2023-04-23T22:04:16.354Z,74.04
2023-04-23T22:07:12.623Z,74.00
2023-04-23T22:10:02.898Z,74.19
2023-04-23T22:12:53.260Z,74.17
2023-04-23T22:15:44.407Z,74.29
2023-04-23T22:18:38.924Z,74.37
2023-04-23T22:21:29.523Z,74.51
2023-04-23T22:24:23.696Z,74.57
2023-04-23T22:27:13.907Z,74.67
2023-04-23T22:30:04.923Z,74.75
2023-04-23T22:32:55.821Z,74.98
2023-04-23T22:36:07.008Z,75.11
2023-04-23T22:39:01.313Z,75.17
2023-04-23T22:42:13.476Z,74.98
2023-04-23T22:45:04.836Z,74.74
2023-04-23T22:48:04.407Z,74.41
2023-04-23T22:50:54.898Z,73.92
2023-04-23T22:53:45.259Z,73.40
2023-04-23T22:56:37.660Z,73.46
2023-04-23T22:59:29.934Z,73.58
2023-04-23T23:02:20.509Z,73.61
2023-04-23T23:05:11.217Z,73.48
2023-04-23T23:08:02.280Z,73.51
2023-04-23T23:10:54.980Z,73.50
2023-04-23T23:13:48.076Z,73.58
2023-04-23T23:16:38.557Z,73.48
2023-04-23T23:19:31.118Z,73.35
2023-04-23T23:22:21.377Z,73.29
2023-04-23T23:25:12.125Z,73.29
2023-04-23T23:28:02.415Z,73.41
2023-04-23T23:30:53.853Z,73.45
2023-04-23T23:33:44.238Z,73.34
2023-04-23T23:36:35.181Z,73.32
2023-04-23T23:39:25.478Z,73.46
2023-04-23T23:42:15.878Z,73.52
2023-04-23T23:45:07.187Z,73.57
2023-04-23T23:47:57.332Z,73.52
2023-04-23T23:50:47.580Z,73.47
2023-04-23T23:53:37.825Z,73.62
2023-04-23T23:56:28.355Z,73.78
2023-04-23T23:59:18.716Z,73.80
